Zeybe — TCMG4 — position and weather

sailwx.info

Track history (hours):
 
Tides and Currents Weather Stations Pressure Air Temp Water Temp Dewpoint Dewpoint Depression Visibility Wind Speed Wind Dir Waves Ship Positions

Zeybe

Last reported at 2017-Nov-17 16:51 UTC. Time now 2017-Nov-20 02:11 UTC.
Position N 36°03' E 030°38'.

Length 70 m; draft 3 m.

Type: Ship. MMSI: 271042650.

Date/timePositionNaut miles runAvg speedWind from/ knotsBaromVisibWave heightAir tempDewpointWater temp
2017-Nov-17 16:51N 36°03' E 030°38'4 8.2
2017-Nov-17 16:24N 36°03' E 030°43'3 8.1
2017-Nov-17 16:01N 36°03' E 030°47'4 8.2
2017-Nov-17 15:30N 36°03' E 030°52'4 8.4
2017-Nov-17 15:01N 36°03' E 030°57'4 8.7
2017-Nov-17 14:30N 36°02' E 031°03'5 8.7
2017-Nov-17 13:59N 36°02' E 031°08'4 8.4
2017-Nov-17 13:31N 36°02' E 031°13'4 8.3
2017-Nov-17 13:01N 36°02' E 031°18'4 8.4
2017-Nov-17 12:30N 36°02' E 031°23'4 8.4
2017-Nov-17 12:01N 36°02' E 031°29'146 8.1
2017-Nov-16 17:52N 36°16' E 034°29'  
2017-Nov-12 16:25N 32°50' E 035°01'0 0.5
2017-Nov-12 15:45N 32°51' E 035°01'  
Track history (hours):
 
Tides and Currents Weather Stations Pressure Air Temp Water Temp Dewpoint Dewpoint Depression Visibility Wind Speed Wind Dir Waves Ship Positions

Zeybe

Last reported at 2017-Nov-17 16:51 UTC. Time now 2017-Nov-20 02:11 UTC.
Position N 36°03' E 030°38'.

Length 70 m; draft 3 m.

Type: Ship. MMSI: 271042650.

Date/timePositionNaut miles runAvg speedWind from/ knotsBaromVisibWave heightAir tempDewpointWater temp
2017-Nov-17 16:51N 36°03' E 030°38'4 8.2
2017-Nov-17 16:24N 36°03' E 030°43'3 8.1
2017-Nov-17 16:01N 36°03' E 030°47'4 8.2
2017-Nov-17 15:30N 36°03' E 030°52'4 8.4
2017-Nov-17 15:01N 36°03' E 030°57'4 8.7
2017-Nov-17 14:30N 36°02' E 031°03'5 8.7
2017-Nov-17 13:59N 36°02' E 031°08'4 8.4
2017-Nov-17 13:31N 36°02' E 031°13'4 8.3
2017-Nov-17 13:01N 36°02' E 031°18'4 8.4
2017-Nov-17 12:30N 36°02' E 031°23'4 8.4
2017-Nov-17 12:01N 36°02' E 031°29'146 8.1
2017-Nov-16 17:52N 36°16' E 034°29'  
2017-Nov-12 16:25N 32°50' E 035°01'0 0.5
2017-Nov-12 15:45N 32°51' E 035°01'  

Dump ship's entire track history